createdAt,value
2017-02-21T00:00:39.958Z,49.2
2017-02-21T00:03:12.581Z,49.2
2017-02-21T00:05:45.647Z,49.2
2017-02-21T00:08:18.272Z,49.2
2017-02-21T00:10:50.916Z,49.2
2017-02-21T00:13:23.550Z,49.3
2017-02-21T00:15:56.178Z,49.2
2017-02-21T00:18:29.820Z,49.3
2017-02-21T00:21:02.857Z,49.3
2017-02-21T00:23:35.469Z,49.3
2017-02-21T00:26:08.520Z,49.3
2017-02-21T00:28:41.743Z,49.2
2017-02-21T00:31:14.379Z,49.3
2017-02-21T00:33:46.998Z,49.3
2017-02-21T00:36:20.232Z,49.2
2017-02-21T00:38:52.864Z,49.2
2017-02-21T00:41:26.747Z,49.3
2017-02-21T00:43:59.807Z,49.3
2017-02-21T00:46:32.858Z,49.3
2017-02-21T00:49:05.480Z,49.3
2017-02-21T00:51:38.125Z,49.3
2017-02-21T00:54:11.186Z,49.3
2017-02-21T00:56:43.808Z,49.2
2017-02-21T00:59:16.630Z,49.3
2017-02-21T01:01:49.469Z,49.2
2017-02-21T01:04:22.095Z,49.2
2017-02-21T01:06:54.731Z,49.2
2017-02-21T01:09:27.404Z,49.2
2017-02-21T01:12:00.449Z,49.1
2017-02-21T01:14:33.223Z,49.2
2017-02-21T01:17:05.884Z,49.2
2017-02-21T01:19:38.945Z,49.2
2017-02-21T01:22:11.566Z,49.3
2017-02-21T01:24:44.230Z,49.2
2017-02-21T01:27:16.876Z,49.3
2017-02-21T01:29:49.948Z,49.2
2017-02-21T01:32:22.585Z,49.2
2017-02-21T01:34:55.201Z,49.2
2017-02-21T01:37:27.841Z,49.2
2017-02-21T01:40:00.469Z,49.2
2017-02-21T01:42:33.095Z,49.1
2017-02-21T01:45:05.730Z,49.1
2017-02-21T01:47:38.391Z,49.1
2017-02-21T01:50:11.045Z,49
2017-02-21T01:52:44.106Z,49
2017-02-21T01:55:17.163Z,48.9
2017-02-21T01:57:49.802Z,48.9
2017-02-21T02:00:22.885Z,48.9
2017-02-21T02:02:55.533Z,48.8
2017-02-21T02:05:28.150Z,48.8
2017-02-21T02:08:01.201Z,48.8
2017-02-21T02:10:33.862Z,48.8
2017-02-21T02:13:06.521Z,48.7
2017-02-21T02:15:39.155Z,48.7
2017-02-21T02:18:12.246Z,48.7
2017-02-21T02:20:45.308Z,48.7
2017-02-21T02:23:17.943Z,48.7
2017-02-21T02:25:51.036Z,48.7
2017-02-21T02:28:23.660Z,48.6
2017-02-21T02:30:56.784Z,48.6
2017-02-21T02:33:30.678Z,48.6
2017-02-21T02:36:03.745Z,48.6
2017-02-21T02:38:36.806Z,48.6
2017-02-21T02:41:09.434Z,48.6
2017-02-21T02:43:42.089Z,48.6
2017-02-21T02:46:15.156Z,48.6
2017-02-21T02:48:47.800Z,48.6
2017-02-21T02:51:20.441Z,48.5
2017-02-21T02:53:53.270Z,48.5
2017-02-21T02:56:25.877Z,48.5
2017-02-21T02:58:58.506Z,48.5
2017-02-21T03:01:31.125Z,48.5
2017-02-21T03:04:03.768Z,48.5
2017-02-21T03:06:36.415Z,48.5
2017-02-21T03:09:09.468Z,48.5
2017-02-21T03:11:42.129Z,48.5
2017-02-21T03:14:15.181Z,48.5
2017-02-21T03:16:47.786Z,48.4
2017-02-21T03:19:20.856Z,48.4
2017-02-21T03:21:53.622Z,48.4
2017-02-21T03:24:26.254Z,48.4
2017-02-21T03:26:59.340Z,48.4
2017-02-21T03:29:31.992Z,48.4
2017-02-21T03:32:04.663Z,48.4
2017-02-21T03:34:37.297Z,48.5
2017-02-21T03:37:10.372Z,48.4
2017-02-21T03:39:43.010Z,48.5
2017-02-21T03:42:15.662Z,48.4
2017-02-21T03:44:48.296Z,48.4
2017-02-21T03:47:20.924Z,48.4
2017-02-21T03:49:53.566Z,48.4
2017-02-21T03:52:26.344Z,48.4
2017-02-21T03:54:58.969Z,48.5
2017-02-21T03:57:32.447Z,48.5
2017-02-21T04:00:05.071Z,48.4
2017-02-21T04:02:37.714Z,48.4
2017-02-21T04:05:10.339Z,48.4
2017-02-21T04:07:42.995Z,48.4
2017-02-21T04:10:16.492Z,48.4
2017-02-21T04:12:49.139Z,48.4
2017-02-21T04:15:22.178Z,48.4
2017-02-21T04:17:54.790Z,48.4
2017-02-21T04:20:27.863Z,48.4
2017-02-21T04:23:00.504Z,48.4
2017-02-21T04:25:33.140Z,48.3
2017-02-21T04:28:05.772Z,48.3
2017-02-21T04:30:38.396Z,48.3
2017-02-21T04:33:11.025Z,48.3
2017-02-21T04:35:43.666Z,48.3
2017-02-21T04:38:16.277Z,48.3
2017-02-21T04:40:48.895Z,48.3
2017-02-21T04:43:22.361Z,48.3
2017-02-21T04:45:54.994Z,48.2
2017-02-21T04:48:27.624Z,48.3
2017-02-21T04:51:00.251Z,48.3
2017-02-21T04:53:33.300Z,48.3
2017-02-21T04:56:06.341Z,48.2
2017-02-21T04:58:39.422Z,48.3
2017-02-21T05:01:12.061Z,48.2
2017-02-21T05:03:44.738Z,48.2
2017-02-21T05:06:18.091Z,48.2
2017-02-21T05:08:51.137Z,48.2
2017-02-21T05:11:23.766Z,48.2
2017-02-21T05:13:56.868Z,48.2
2017-02-21T05:16:29.498Z,48.2
2017-02-21T05:19:02.160Z,48.2
2017-02-21T05:21:35.229Z,48.2
2017-02-21T05:24:08.328Z,48.2
2017-02-21T05:26:40.967Z,48.2
2017-02-21T05:29:13.585Z,48.2
2017-02-21T05:31:46.670Z,48.1
2017-02-21T05:34:19.724Z,48.1
2017-02-21T05:36:52.345Z,48.2
2017-02-21T05:39:25.002Z,48.1
2017-02-21T05:41:57.664Z,48.2
2017-02-21T05:44:30.299Z,48.1
2017-02-21T05:47:02.943Z,48.2
2017-02-21T05:49:35.573Z,48.2
2017-02-21T05:52:08.222Z,48.2
2017-02-21T05:54:40.892Z,48.1
2017-02-21T05:57:14.358Z,48.2
2017-02-21T05:59:47.418Z,48.2
2017-02-21T06:02:20.081Z,48.2
2017-02-21T06:04:53.173Z,48.2
2017-02-21T06:07:26.614Z,48.2
2017-02-21T06:09:59.234Z,48.1
2017-02-21T06:12:31.871Z,48.1
2017-02-21T06:15:04.490Z,48.2
2017-02-21T06:17:37.985Z,48.2
2017-02-21T06:20:11.045Z,48.2
2017-02-21T06:22:44.144Z,48.2
2017-02-21T06:25:17.232Z,48.2
2017-02-21T06:27:50.263Z,48.2
2017-02-21T06:30:22.885Z,48.3
2017-02-21T06:32:55.512Z,48.3
2017-02-21T06:35:28.178Z,48.4
2017-02-21T06:38:01.658Z,48.3
2017-02-21T06:40:34.296Z,48.3
2017-02-21T06:43:06.954Z,48.3
2017-02-21T06:45:39.993Z,48.3
2017-02-21T06:48:12.609Z,48.3
2017-02-21T06:50:45.265Z,48.3
2017-02-21T06:53:17.890Z,48.4
2017-02-21T06:55:50.521Z,48.4
2017-02-21T06:58:23.768Z,48.4
2017-02-21T07:00:56.836Z,48.4
2017-02-21T07:03:29.450Z,48.3
2017-02-21T07:06:02.530Z,48.4
2017-02-21T07:08:35.174Z,48.3
2017-02-21T07:11:07.831Z,48.3
2017-02-21T07:13:40.466Z,48.4
2017-02-21T07:16:13.117Z,48.4
2017-02-21T07:18:45.750Z,48.3
2017-02-21T07:21:18.809Z,48.3
2017-02-21T07:23:52.334Z,48.3
2017-02-21T07:26:24.983Z,48.3
2017-02-21T07:28:58.039Z,48.3
2017-02-21T07:31:30.638Z,48.2
2017-02-21T07:34:03.717Z,48.3
2017-02-21T07:36:36.348Z,48.2
2017-02-21T07:39:09.438Z,48.2
2017-02-21T07:41:42.079Z,48.2
2017-02-21T07:44:15.728Z,48.1
2017-02-21T07:46:48.534Z,48.1
2017-02-21T07:49:22.019Z,48.1
2017-02-21T07:51:54.641Z,48.1
2017-02-21T07:54:27.291Z,48.1
2017-02-21T07:56:59.933Z,48.1
2017-02-21T07:59:33.023Z,48
2017-02-21T08:02:05.641Z,48
2017-02-21T08:04:39.126Z,47.8
2017-02-21T08:07:11.785Z,47
2017-02-21T08:09:44.415Z,46.5
2017-02-21T08:12:17.466Z,46
2017-02-21T08:14:50.101Z,45.7
2017-02-21T08:17:22.726Z,45.1
2017-02-21T08:19:55.807Z,44.9
2017-02-21T08:22:28.408Z,45.2
2017-02-21T08:25:01.437Z,45.1
2017-02-21T08:27:34.827Z,44.8
2017-02-21T08:30:07.497Z,45.2
2017-02-21T08:32:40.167Z,46.1
2017-02-21T08:35:12.813Z,46.4
2017-02-21T08:37:45.447Z,46.5
2017-02-21T08:40:18.068Z,46.5
2017-02-21T08:42:52.009Z,46.6
2017-02-21T08:45:24.647Z,46.6
2017-02-21T08:47:57.293Z,46.8
2017-02-21T08:50:30.359Z,47.3
2017-02-21T08:53:03.410Z,47.5
2017-02-21T08:55:36.483Z,47.6
2017-02-21T08:58:09.563Z,47.6
2017-02-21T09:00:42.199Z,47.6
2017-02-21T09:03:14.802Z,47.7
2017-02-21T09:05:47.871Z,47.7
2017-02-21T09:08:20.522Z,47.7
2017-02-21T09:10:53.185Z,47.8
2017-02-21T09:13:25.825Z,47.9
2017-02-21T09:15:58.436Z,47.9
2017-02-21T09:18:31.085Z,47.9
2017-02-21T09:21:03.739Z,48
2017-02-21T09:23:36.378Z,48
2017-02-21T09:26:09.033Z,48.1
2017-02-21T09:28:42.114Z,48.1
2017-02-21T09:31:14.748Z,48.1
2017-02-21T09:33:47.787Z,48.4
2017-02-21T09:36:20.413Z,48.2
2017-02-21T09:38:53.037Z,48.2
2017-02-21T09:41:25.656Z,48.3
2017-02-21T09:43:59.117Z,48.3
2017-02-21T09:46:31.787Z,48.3
2017-02-21T09:49:05.305Z,48.2
2017-02-21T09:51:37.952Z,48.3
2017-02-21T09:54:10.582Z,47.5
2017-02-21T09:56:43.203Z,47
2017-02-21T09:59:15.818Z,46.5
2017-02-21T10:01:48.453Z,46.5
2017-02-21T10:04:21.090Z,46.7
2017-02-21T10:06:53.762Z,45.9
2017-02-21T10:09:26.842Z,45.3
2017-02-21T10:11:59.491Z,44.7
2017-02-21T10:14:32.121Z,44.3
2017-02-21T10:17:04.776Z,44.2
2017-02-21T10:19:37.423Z,44.1
2017-02-21T10:22:10.502Z,43.9
2017-02-21T10:24:43.587Z,43.7
2017-02-21T10:27:16.267Z,43.8
2017-02-21T10:29:48.890Z,43.6
2017-02-21T10:32:22.367Z,43.5
2017-02-21T10:34:55.067Z,43.5
2017-02-21T10:37:27.715Z,43.4
2017-02-21T10:40:00.358Z,43.5
2017-02-21T10:42:33.007Z,43.6
2017-02-21T10:45:05.639Z,43.4
2017-02-21T10:47:38.730Z,43.3
2017-02-21T10:50:11.358Z,43.3
2017-02-21T10:52:43.987Z,43.1
2017-02-21T10:55:16.655Z,44.3
2017-02-21T10:57:49.297Z,45.4
2017-02-21T11:00:22.376Z,45.6
2017-02-21T11:02:55.442Z,45.8
2017-02-21T11:05:28.086Z,45.9
2017-02-21T11:08:01.544Z,46.1
2017-02-21T11:10:34.606Z,46.1
2017-02-21T11:13:07.252Z,46.2
2017-02-21T11:15:39.945Z,46
2017-02-21T11:18:12.568Z,46
2017-02-21T11:20:45.615Z,46.1
2017-02-21T11:23:18.227Z,46.1
2017-02-21T11:25:50.859Z,46.1
2017-02-21T11:28:23.484Z,46.2
2017-02-21T11:30:56.121Z,46.2
2017-02-21T11:33:29.184Z,46.2
2017-02-21T11:36:01.820Z,46.2
2017-02-21T11:38:34.866Z,46.2
2017-02-21T11:41:07.504Z,46.2
2017-02-21T11:43:40.131Z,46.2
2017-02-21T11:46:12.754Z,46.1
2017-02-21T11:48:45.383Z,46.1
2017-02-21T11:51:18.025Z,46.1
2017-02-21T11:53:50.677Z,46.1
2017-02-21T11:56:23.293Z,46.1
2017-02-21T11:58:55.927Z,46.1
2017-02-21T12:01:28.546Z,46.1
2017-02-21T12:04:01.195Z,46.1
2017-02-21T12:06:34.699Z,46.1
2017-02-21T12:09:07.339Z,46.1
2017-02-21T12:11:40.402Z,46
2017-02-21T12:14:13.021Z,46
2017-02-21T12:16:45.682Z,45.9
2017-02-21T12:19:18.363Z,44.5
2017-02-21T12:21:50.996Z,44.1
2017-02-21T12:24:23.637Z,44.5
2017-02-21T12:26:56.286Z,44.7
2017-02-21T12:29:28.913Z,45.4
2017-02-21T12:32:01.547Z,46
2017-02-21T12:34:34.188Z,46.3
2017-02-21T12:37:06.825Z,46.8
2017-02-21T12:39:39.887Z,47.1
2017-02-21T12:42:12.534Z,47.2
2017-02-21T12:44:45.203Z,47.4
2017-02-21T12:47:18.123Z,47.6
2017-02-21T12:49:51.181Z,47.6
2017-02-21T12:52:23.816Z,47.8
2017-02-21T12:54:56.457Z,48
2017-02-21T12:57:29.288Z,48.1
2017-02-21T13:00:02.759Z,48.2
2017-02-21T13:02:35.386Z,48.4
2017-02-21T13:05:08.048Z,48.4
2017-02-21T13:07:40.903Z,48.5
2017-02-21T13:10:13.968Z,48.6
2017-02-21T13:12:46.645Z,48.7
2017-02-21T13:15:19.304Z,48.7
2017-02-21T13:17:52.076Z,48.8
2017-02-21T13:20:24.711Z,47.6
2017-02-21T13:22:57.375Z,45.5
2017-02-21T13:25:30.043Z,42.1
2017-02-21T13:28:02.675Z,41.9
2017-02-21T13:30:36.179Z,44
2017-02-21T13:33:08.814Z,45.3
2017-02-21T13:35:41.459Z,46.1
2017-02-21T13:38:14.116Z,47
2017-02-21T13:40:46.759Z,47.6
2017-02-21T13:43:19.783Z,48.4
2017-02-21T13:45:52.403Z,48.8
2017-02-21T13:48:25.036Z,49.5
2017-02-21T13:50:57.662Z,49.9
2017-02-21T13:53:30.325Z,50.5
2017-02-21T13:56:03.124Z,50.6
2017-02-21T13:58:35.853Z,50.7
2017-02-21T14:01:08.516Z,50.8
2017-02-21T14:03:41.142Z,50.8
2017-02-21T14:06:13.774Z,51.1
2017-02-21T14:08:46.878Z,51.2
2017-02-21T14:11:19.955Z,51.4
2017-02-21T14:13:53.016Z,50.9
2017-02-21T14:16:26.076Z,51.6
2017-02-21T14:18:58.724Z,51.5
2017-02-21T14:21:31.367Z,51.7
2017-02-21T14:24:04.404Z,52.1
2017-02-21T14:26:37.481Z,51.5
2017-02-21T14:29:10.101Z,52.3
2017-02-21T14:31:43.153Z,51.6
2017-02-21T14:34:15.760Z,51.3
2017-02-21T14:36:48.404Z,51
2017-02-21T14:39:21.876Z,51
2017-02-21T14:41:54.516Z,51
2017-02-21T14:44:27.208Z,51.2
2017-02-21T14:47:00.296Z,51.4
2017-02-21T14:49:32.938Z,51.3
2017-02-21T14:52:06.040Z,51.5
2017-02-21T14:54:39.109Z,51.4
2017-02-21T14:57:12.144Z,51.5
2017-02-21T14:59:44.800Z,52
2017-02-21T15:02:17.449Z,53.7
2017-02-21T15:04:50.064Z,54.4
2017-02-21T15:07:22.703Z,54.9
2017-02-21T15:09:55.356Z,55.5
2017-02-21T15:12:27.993Z,55.7
2017-02-21T15:15:00.817Z,55.8
2017-02-21T15:17:33.435Z,55.6
2017-02-21T15:20:06.089Z,55.5
2017-02-21T15:22:38.754Z,55.2
2017-02-21T15:25:11.396Z,55.3
2017-02-21T15:27:44.042Z,55.2
2017-02-21T15:30:17.541Z,55.4
2017-02-21T15:32:50.174Z,55.3
2017-02-21T15:35:23.217Z,55
2017-02-21T15:37:55.831Z,55.1
2017-02-21T15:40:28.455Z,54.9
2017-02-21T15:43:01.071Z,54.7
2017-02-21T15:45:34.186Z,54.6
2017-02-21T15:48:07.015Z,54.7
2017-02-21T15:50:40.335Z,53.9
2017-02-21T15:53:13.054Z,48.3
2017-02-21T15:55:46.132Z,45.9
2017-02-21T15:58:18.786Z,49.5
2017-02-21T16:00:51.870Z,50.1
2017-02-21T16:03:25.748Z,50.4
2017-02-21T16:05:58.461Z,50.8
2017-02-21T16:08:31.500Z,50.9
2017-02-21T16:11:04.146Z,50.3
2017-02-21T16:13:37.631Z,48.4
2017-02-21T16:16:10.281Z,46.9
2017-02-21T16:18:43.765Z,46.1
2017-02-21T16:21:16.381Z,45.2
2017-02-21T16:23:49.855Z,44.7
2017-02-21T16:26:22.462Z,44.3
2017-02-21T16:28:55.076Z,43.8
2017-02-21T16:31:27.710Z,43.6
2017-02-21T16:34:00.772Z,44.9
2017-02-21T16:36:33.404Z,47
2017-02-21T16:39:06.223Z,47.8
2017-02-21T16:41:39.308Z,48.3
2017-02-21T16:44:11.944Z,48.8
2017-02-21T16:46:44.606Z,49
2017-02-21T16:49:17.237Z,49.2
2017-02-21T16:51:49.868Z,49.4
2017-02-21T16:54:22.537Z,49.5
2017-02-21T16:56:55.205Z,49.6
2017-02-21T16:59:27.833Z,49.6
2017-02-21T17:02:00.463Z,49.6
2017-02-21T17:04:33.091Z,49.6
2017-02-21T17:07:05.725Z,49.6
2017-02-21T17:09:38.347Z,49.6
2017-02-21T17:12:10.956Z,49.6
2017-02-21T17:14:43.994Z,49.5
2017-02-21T17:17:16.602Z,49.6
2017-02-21T17:19:49.662Z,49.6
2017-02-21T17:22:22.322Z,49.5
2017-02-21T17:24:54.958Z,49.5
2017-02-21T17:27:28.206Z,49.6
2017-02-21T17:30:00.812Z,49.4
2017-02-21T17:32:33.431Z,49.4
2017-02-21T17:35:06.517Z,49.5
2017-02-21T17:37:39.603Z,49.4
2017-02-21T17:40:12.673Z,49.4
2017-02-21T17:42:45.297Z,49.3
2017-02-21T17:45:17.967Z,49.3
2017-02-21T17:47:50.596Z,49.3
2017-02-21T17:50:23.408Z,49.5
2017-02-21T17:52:56.477Z,49.4
2017-02-21T17:55:29.100Z,49.4
2017-02-21T17:58:02.152Z,49.4
2017-02-21T18:00:34.816Z,49.5
2017-02-21T18:03:07.858Z,49.5
2017-02-21T18:05:40.536Z,49.4
2017-02-21T18:08:13.166Z,49.4
2017-02-21T18:10:46.228Z,49.4
2017-02-21T18:13:19.738Z,49.5
2017-02-21T18:15:52.836Z,49.5
2017-02-21T18:18:25.462Z,49.3
2017-02-21T18:20:58.134Z,46.6
2017-02-21T18:23:30.769Z,44.5
2017-02-21T18:26:03.390Z,43.4
2017-02-21T18:28:36.016Z,42.8
2017-02-21T18:31:08.648Z,42.6
2017-02-21T18:33:41.671Z,42.2
2017-02-21T18:36:14.277Z,41.8
2017-02-21T18:38:46.908Z,41.3
2017-02-21T18:41:19.959Z,41.1
2017-02-21T18:43:52.609Z,40.8
2017-02-21T18:46:25.248Z,42.1
2017-02-21T18:48:58.324Z,43.4
2017-02-21T18:51:31.364Z,45
2017-02-21T18:54:04.208Z,45.8
2017-02-21T18:56:36.829Z,46.2
2017-02-21T18:59:09.465Z,46.6
2017-02-21T19:01:42.511Z,46.8
2017-02-21T19:04:15.140Z,47
2017-02-21T19:06:47.758Z,47.2
2017-02-21T19:09:20.407Z,47.2
2017-02-21T19:11:53.067Z,47.3
2017-02-21T19:14:25.695Z,47.3
2017-02-21T19:16:59.177Z,47.4
2017-02-21T19:19:31.766Z,47.4
2017-02-21T19:22:04.385Z,47.4
2017-02-21T19:24:37.444Z,47.4
2017-02-21T19:27:10.106Z,47.5
2017-02-21T19:29:42.730Z,47.5
2017-02-21T19:32:15.359Z,47.4
2017-02-21T19:34:48.418Z,47.4
2017-02-21T19:37:21.481Z,47.4
2017-02-21T19:39:54.112Z,47.5
2017-02-21T19:42:27.632Z,47.5
2017-02-21T19:45:00.281Z,47.4
2017-02-21T19:47:32.888Z,47.4
2017-02-21T19:50:05.537Z,47.3
2017-02-21T19:52:38.625Z,47.4
2017-02-21T19:55:11.674Z,47.4
2017-02-21T19:57:44.303Z,47.4
2017-02-21T20:00:16.919Z,47.3
2017-02-21T20:02:49.562Z,47.3
2017-02-21T20:05:22.229Z,47.3
2017-02-21T20:07:55.050Z,47.4
2017-02-21T20:10:27.637Z,47.3
2017-02-21T20:13:00.307Z,47.4
2017-02-21T20:15:33.771Z,47.5
2017-02-21T20:18:06.391Z,47.5
2017-02-21T20:20:39.028Z,47.5
2017-02-21T20:23:12.129Z,47.5
2017-02-21T20:25:45.209Z,47.6
2017-02-21T20:28:18.242Z,47.6
2017-02-21T20:30:50.911Z,47.6
2017-02-21T20:33:23.538Z,47.6
2017-02-21T20:35:56.189Z,47.6
2017-02-21T20:38:28.813Z,47.6
2017-02-21T20:41:01.879Z,47.6
2017-02-21T20:43:34.703Z,47.5
2017-02-21T20:46:07.362Z,47.5
2017-02-21T20:48:39.994Z,47.5
2017-02-21T20:51:13.027Z,47.5
2017-02-21T20:53:46.078Z,47.5
2017-02-21T20:56:18.699Z,47.5
2017-02-21T20:58:52.168Z,47.5
2017-02-21T21:01:24.810Z,47.5
2017-02-21T21:03:57.897Z,47.4
2017-02-21T21:06:30.528Z,47.4
2017-02-21T21:09:03.155Z,47.4
2017-02-21T21:11:35.809Z,47.4
2017-02-21T21:14:08.431Z,47.4
2017-02-21T21:16:41.076Z,47.4
2017-02-21T21:19:13.733Z,47.4
2017-02-21T21:21:46.506Z,47.4
2017-02-21T21:24:19.172Z,47.7
2017-02-21T21:26:52.641Z,47.8
2017-02-21T21:29:25.288Z,47.7
2017-02-21T21:31:57.939Z,47.9
2017-02-21T21:34:31.038Z,47.8
2017-02-21T21:37:03.688Z,47.7
2017-02-21T21:39:36.319Z,47.8
2017-02-21T21:42:08.933Z,47.7
2017-02-21T21:44:41.538Z,47.6
2017-02-21T21:47:14.613Z,47.6
2017-02-21T21:49:48.114Z,47.6
2017-02-21T21:52:21.160Z,47.7
2017-02-21T21:54:53.798Z,47.6
2017-02-21T21:57:26.444Z,47.6
2017-02-21T21:59:59.093Z,47.6
2017-02-21T22:02:31.742Z,47.5
2017-02-21T22:05:04.827Z,47.5
2017-02-21T22:07:37.455Z,47.5
2017-02-21T22:10:10.500Z,47.5
2017-02-21T22:12:43.563Z,47.5
2017-02-21T22:15:17.033Z,47.5
2017-02-21T22:17:49.875Z,47.5
2017-02-21T22:20:22.495Z,47.4
2017-02-21T22:22:55.103Z,47.5
2017-02-21T22:25:28.148Z,47.6
2017-02-21T22:28:00.775Z,47.5
2017-02-21T22:30:33.453Z,47.6
2017-02-21T22:33:06.107Z,47.5
2017-02-21T22:35:38.733Z,47.7
2017-02-21T22:38:11.567Z,47.6
2017-02-21T22:40:44.599Z,47.5
2017-02-21T22:43:17.231Z,47.5
2017-02-21T22:45:49.834Z,47.5
2017-02-21T22:48:22.886Z,47.5
2017-02-21T22:50:55.517Z,47.5
2017-02-21T22:53:28.154Z,47.5
2017-02-21T22:56:00.754Z,47.5
2017-02-21T22:58:33.386Z,47.5
2017-02-21T23:01:06.012Z,47.5
2017-02-21T23:03:38.645Z,47.5
2017-02-21T23:06:11.279Z,47.6
2017-02-21T23:08:43.927Z,47.6
2017-02-21T23:11:17.600Z,47.6
2017-02-21T23:13:50.235Z,47.6
2017-02-21T23:16:22.864Z,47.6
2017-02-21T23:18:55.530Z,47.6
2017-02-21T23:21:28.573Z,47.6
2017-02-21T23:24:01.625Z,47.6
2017-02-21T23:26:35.092Z,47.6
2017-02-21T23:29:08.132Z,47.6
2017-02-21T23:31:40.771Z,47.6
2017-02-21T23:34:13.440Z,47.8
2017-02-21T23:36:46.070Z,47.7
2017-02-21T23:39:18.704Z,47.8
2017-02-21T23:41:51.747Z,47.9
2017-02-21T23:44:24.377Z,47.9
2017-02-21T23:46:57.034Z,47.9
2017-02-21T23:49:29.676Z,47.8
2017-02-21T23:52:02.317Z,47.8
2017-02-21T23:54:35.361Z,47.8
2017-02-21T23:57:08.021Z,47.8
2017-02-21T23:59:40.643Z,47.8
